createdAt,value
2022-12-01T00:02:19.134Z,21.10
2022-12-01T00:04:55.514Z,21.40
2022-12-01T00:07:43.551Z,21.53
2022-12-01T00:10:33.521Z,20.50
2022-12-01T00:13:04.101Z,20.77
2022-12-01T00:15:42.484Z,21.60
2022-12-01T00:18:11.536Z,21.30
2022-12-01T00:20:46.657Z,21.43
2022-12-01T00:23:21.486Z,20.97
2022-12-01T00:25:49.807Z,21.53
2022-12-01T00:28:24.673Z,22.20
2022-12-01T00:30:54.329Z,21.50
2022-12-01T00:33:29.497Z,21.43
2022-12-01T00:36:00.837Z,22.47
2022-12-01T00:38:36.539Z,20.87
2022-12-01T00:41:05.195Z,21.60
2022-12-01T00:43:39.521Z,22.33
2022-12-01T00:46:09.233Z,21.27
2022-12-01T00:48:43.562Z,22.40
2022-12-01T00:51:11.685Z,22.10
2022-12-01T00:53:46.527Z,22.13
2022-12-01T00:56:15.039Z,22.90
2022-12-01T00:58:49.523Z,23.20
2022-12-01T01:01:19.133Z,22.50
2022-12-01T01:03:54.509Z,22.70
2022-12-01T01:06:35.713Z,22.77
2022-12-01T01:09:10.542Z,23.43
2022-12-01T01:11:45.710Z,22.13
2022-12-01T01:14:14.012Z,23.77
2022-12-01T01:16:50.797Z,22.83
2022-12-01T01:19:19.450Z,23.97
2022-12-01T01:21:54.595Z,23.73
2022-12-01T01:24:22.842Z,24.03
2022-12-01T01:26:57.699Z,22.90
2022-12-01T01:29:26.110Z,22.73
2022-12-01T01:32:02.729Z,23.00
2022-12-01T01:34:31.169Z,23.23
2022-12-01T01:37:05.594Z,23.97
2022-12-01T01:39:33.748Z,22.20
2022-12-01T01:42:08.600Z,22.90
2022-12-01T01:44:53.126Z,22.23
2022-12-01T01:47:34.634Z,22.07
2022-12-01T01:50:08.530Z,23.30
2022-12-01T01:52:46.570Z,22.20
2022-12-01T01:55:16.244Z,22.33
2022-12-01T01:57:52.603Z,21.07
2022-12-01T02:00:22.988Z,23.03
2022-12-01T02:03:05.542Z,23.40
2022-12-01T02:05:45.198Z,22.73
2022-12-01T02:08:20.570Z,23.10
2022-12-01T02:11:12.235Z,21.47
2022-12-01T02:13:57.803Z,21.80
2022-12-01T02:16:32.469Z,23.13
2022-12-01T02:19:14.602Z,21.70
2022-12-01T02:22:01.770Z,23.43
2022-12-01T02:25:08.608Z,22.97
2022-12-01T02:27:52.732Z,23.53
2022-12-01T02:30:39.747Z,23.33
2022-12-01T02:33:13.647Z,23.83
2022-12-01T02:35:54.800Z,22.37
2022-12-01T02:38:29.805Z,23.33
2022-12-01T02:41:12.651Z,22.57
2022-12-01T02:43:47.083Z,23.27
2022-12-01T02:46:30.720Z,23.83
2022-12-01T02:49:03.382Z,24.50
2022-12-01T02:51:39.687Z,24.17
2022-12-01T02:54:08.701Z,24.60
2022-12-01T02:56:43.848Z,23.30
2022-12-01T02:59:13.587Z,23.90
2022-12-01T03:02:02.824Z,23.70
2022-12-01T03:04:51.543Z,24.50
2022-12-01T03:07:44.787Z,24.67
2022-12-01T03:10:20.285Z,24.87
2022-12-01T03:13:25.799Z,23.83
2022-12-01T03:16:02.652Z,23.60
2022-12-01T03:18:44.655Z,25.83
2022-12-01T03:21:21.134Z,24.13
2022-12-01T03:23:58.667Z,26.20
2022-12-01T03:26:31.653Z,27.67
2022-12-01T03:29:15.680Z,25.33
2022-12-01T03:31:49.259Z,28.03
2022-12-01T03:34:32.687Z,28.07
2022-12-01T03:37:06.617Z,27.20
2022-12-01T03:39:45.635Z,23.80
2022-12-01T03:42:18.968Z,22.93
2022-12-01T03:44:57.704Z,27.67
2022-12-01T03:47:29.680Z,27.50
2022-12-01T03:50:07.644Z,24.83
2022-12-01T03:52:45.659Z,28.10
2022-12-01T03:55:25.679Z,27.47
2022-12-01T03:57:58.132Z,26.87
2022-12-01T04:00:33.779Z,28.40
2022-12-01T04:03:04.401Z,29.83
2022-12-01T04:05:47.729Z,27.47
2022-12-01T04:08:16.209Z,29.23
2022-12-01T04:10:50.758Z,23.43
2022-12-01T04:13:23.258Z,24.97
2022-12-01T04:15:58.918Z,28.13
2022-12-01T04:18:27.190Z,28.10
2022-12-01T04:21:03.669Z,28.03
2022-12-01T04:23:49.236Z,29.73
2022-12-01T04:26:23.703Z,29.73
2022-12-01T04:28:52.505Z,29.13
2022-12-01T04:31:27.805Z,29.93
2022-12-01T04:33:56.152Z,29.50
2022-12-01T04:36:33.787Z,28.17
2022-12-01T04:39:02.959Z,29.00
2022-12-01T04:41:37.714Z,30.87
2022-12-01T04:44:06.086Z,29.33
2022-12-01T04:46:40.813Z,29.40
2022-12-01T04:49:09.157Z,30.40
2022-12-01T04:51:45.702Z,30.80
2022-12-01T04:54:13.821Z,28.40
2022-12-01T04:56:48.731Z,29.27
2022-12-01T04:59:17.264Z,29.90
2022-12-01T05:01:53.891Z,28.93
2022-12-01T05:04:29.068Z,30.07
2022-12-01T05:07:11.790Z,28.60
2022-12-01T05:09:40.292Z,29.57
2022-12-01T05:12:14.746Z,28.90
2022-12-01T05:14:43.236Z,29.40
2022-12-01T05:17:17.822Z,27.67
2022-12-01T05:20:09.991Z,28.73
2022-12-01T05:23:04.303Z,29.33
2022-12-01T05:25:34.942Z,28.03
2022-12-01T05:28:03.207Z,28.47
2022-12-01T05:30:31.614Z,29.87
2022-12-01T05:33:06.815Z,28.43
2022-12-01T05:35:35.782Z,27.77
2022-12-01T05:38:12.983Z,30.07
2022-12-01T05:40:47.970Z,29.13
2022-12-01T05:43:16.214Z,28.47
2022-12-01T05:45:50.876Z,28.90
2022-12-01T05:48:19.451Z,29.77
2022-12-01T05:50:53.837Z,28.57
2022-12-01T05:53:23.982Z,28.17
2022-12-01T05:56:00.774Z,27.90
2022-12-01T05:58:29.183Z,26.00
2022-12-01T06:01:03.750Z,28.53
2022-12-01T06:03:31.920Z,29.00
2022-12-01T06:06:13.958Z,29.60
2022-12-01T06:08:43.702Z,29.07
2022-12-01T06:11:18.792Z,28.67
2022-12-01T06:13:47.296Z,28.47
2022-12-01T06:16:21.836Z,28.10
2022-12-01T06:18:50.242Z,29.23
2022-12-01T06:21:24.817Z,29.23
2022-12-01T06:23:54.803Z,29.53
2022-12-01T06:26:29.959Z,30.07
2022-12-01T06:28:58.571Z,28.83
2022-12-01T06:31:34.021Z,30.37
2022-12-01T06:34:02.817Z,30.33
2022-12-01T06:36:37.879Z,31.00
2022-12-01T06:39:10.653Z,30.17
2022-12-01T06:41:46.005Z,30.77
2022-12-01T06:44:14.250Z,29.80
2022-12-01T06:46:48.879Z,31.00
2022-12-01T06:49:17.354Z,31.53
2022-12-01T06:51:54.222Z,27.40
2022-12-01T06:54:23.992Z,29.40
2022-12-01T06:56:58.885Z,31.57
2022-12-01T06:59:27.985Z,29.87
2022-12-01T07:02:04.034Z,30.73
2022-12-01T07:04:52.015Z,29.43
2022-12-01T07:07:26.915Z,29.67
2022-12-01T07:09:57.058Z,30.13
2022-12-01T07:12:31.913Z,30.30
2022-12-01T07:15:00.261Z,29.80
2022-12-01T07:17:34.850Z,29.10
2022-12-01T07:20:04.136Z,29.17
2022-12-01T07:22:38.861Z,29.30
2022-12-01T07:25:09.940Z,28.50
2022-12-01T07:27:45.163Z,28.23
2022-12-01T07:30:14.226Z,27.23
2022-12-01T07:32:48.869Z,27.10
2022-12-01T07:35:17.536Z,27.63
2022-12-01T07:37:52.038Z,27.17
2022-12-01T07:40:22.488Z,26.70
2022-12-01T07:42:56.861Z,26.37
2022-12-01T07:45:25.054Z,26.03
2022-12-01T07:48:00.939Z,26.30
2022-12-01T07:50:29.309Z,25.57
2022-12-01T07:53:03.873Z,26.47
2022-12-01T07:55:33.528Z,27.03
2022-12-01T07:58:08.911Z,26.13
2022-12-01T08:00:37.188Z,26.53
2022-12-01T08:03:11.989Z,25.57
2022-12-01T08:05:59.918Z,26.37
2022-12-01T08:08:34.889Z,25.03
2022-12-01T08:11:06.526Z,27.27
2022-12-01T08:13:41.871Z,28.17
2022-12-01T08:16:11.910Z,27.80
2022-12-01T08:18:47.893Z,27.60
2022-12-01T08:21:20.744Z,28.10
2022-12-01T08:23:55.964Z,27.77
2022-12-01T08:26:27.475Z,28.73
2022-12-01T08:29:03.092Z,28.47
2022-12-01T08:31:35.715Z,26.83
2022-12-01T08:34:12.965Z,24.63
2022-12-01T08:36:41.209Z,25.27
2022-12-01T08:39:17.109Z,24.60
2022-12-01T08:41:48.152Z,24.10
2022-12-01T08:44:23.040Z,23.47
2022-12-01T08:46:51.506Z,25.27
2022-12-01T08:49:26.932Z,23.40
2022-12-01T08:51:56.410Z,21.67
2022-12-01T08:54:31.273Z,21.70
2022-12-01T08:57:00.986Z,20.17
2022-12-01T08:59:36.105Z,20.03
2022-12-01T09:02:07.050Z,19.80
2022-12-01T09:04:41.972Z,18.37
2022-12-01T09:07:21.514Z,17.93
2022-12-01T09:10:00.964Z,18.87
2022-12-01T09:12:38.030Z,19.03
2022-12-01T09:15:07.112Z,18.07
2022-12-01T09:17:41.940Z,19.00
2022-12-01T09:20:11.693Z,18.77
2022-12-01T09:22:47.112Z,17.67
2022-12-01T09:25:15.377Z,18.00
2022-12-01T09:27:51.979Z,19.17
2022-12-01T09:30:20.259Z,18.80
2022-12-01T09:32:55.002Z,18.13
2022-12-01T09:35:23.768Z,18.93
2022-12-01T09:37:59.124Z,18.20
2022-12-01T09:40:34.169Z,18.43
2022-12-01T09:43:14.049Z,17.63
2022-12-01T09:45:46.270Z,18.40
2022-12-01T09:48:35.003Z,17.40
2022-12-01T09:51:03.588Z,17.80
2022-12-01T09:53:38.976Z,17.90
2022-12-01T09:56:12.793Z,18.53
2022-12-01T09:58:51.110Z,20.77
2022-12-01T10:01:26.962Z,18.73
2022-12-01T10:04:06.029Z,17.67
2022-12-01T10:06:46.231Z,17.97
2022-12-01T10:09:31.016Z,15.50
2022-12-01T10:12:08.041Z,16.67
2022-12-01T10:14:44.992Z,15.20
2022-12-01T10:17:22.074Z,16.83
2022-12-01T10:20:05.017Z,16.40
2022-12-01T10:22:56.893Z,16.10
2022-12-01T10:25:33.038Z,15.17
2022-12-01T10:28:16.772Z,16.00
2022-12-01T10:30:58.033Z,15.73
2022-12-01T10:33:28.217Z,15.70
2022-12-01T10:36:03.071Z,16.27
2022-12-01T10:38:35.826Z,16.27
2022-12-01T10:41:13.114Z,16.00
2022-12-01T10:43:45.461Z,16.17
2022-12-01T10:46:31.086Z,15.63
2022-12-01T10:49:02.584Z,16.13
2022-12-01T10:51:37.032Z,16.10
2022-12-01T10:54:11.941Z,17.03
2022-12-01T10:56:49.158Z,16.63
2022-12-01T10:59:35.923Z,17.27
2022-12-01T11:02:23.245Z,16.77
2022-12-01T11:05:15.326Z,16.17
2022-12-01T11:07:54.174Z,16.23
2022-12-01T11:10:27.000Z,16.63
2022-12-01T11:13:04.267Z,16.90
2022-12-01T11:15:34.490Z,16.63
2022-12-01T11:18:15.076Z,16.87
2022-12-01T11:20:43.497Z,16.93
2022-12-01T11:23:39.067Z,17.77
2022-12-01T11:26:12.772Z,18.03
2022-12-01T11:28:58.431Z,17.33
2022-12-01T11:31:40.052Z,16.90
2022-12-01T11:34:26.217Z,16.43
2022-12-01T11:36:57.105Z,16.57
2022-12-01T11:39:35.179Z,16.97
2022-12-01T11:42:06.198Z,18.20
2022-12-01T11:44:51.384Z,18.50
2022-12-01T11:47:24.128Z,16.97
2022-12-01T11:50:05.252Z,17.63
2022-12-01T11:52:36.897Z,16.70
2022-12-01T11:55:29.280Z,17.50
2022-12-01T11:58:01.251Z,17.50
2022-12-01T12:00:46.270Z,16.53
2022-12-01T12:03:23.275Z,17.33
2022-12-01T12:06:39.460Z,16.47
2022-12-01T12:09:36.585Z,16.47
2022-12-01T12:12:24.345Z,16.17
2022-12-01T12:15:00.863Z,16.80
2022-12-01T12:17:54.385Z,17.67
2022-12-01T12:20:48.362Z,16.67
2022-12-01T12:23:54.275Z,17.20
2022-12-01T12:26:27.523Z,16.33
2022-12-01T12:29:20.524Z,16.00
2022-12-01T12:31:58.915Z,16.43
2022-12-01T12:34:45.183Z,16.10
2022-12-01T12:37:25.046Z,15.17
2022-12-01T12:40:29.556Z,15.93
2022-12-01T12:43:23.017Z,15.30
2022-12-01T12:46:09.317Z,15.33
2022-12-01T12:51:51.313Z,15.37
2022-12-01T12:54:25.811Z,14.47
2022-12-01T12:57:07.137Z,14.43
2022-12-01T12:59:42.431Z,15.10
2022-12-01T13:02:23.265Z,15.47
2022-12-01T13:05:17.197Z,15.07
2022-12-01T13:07:59.482Z,16.83
2022-12-01T13:10:34.170Z,15.47
2022-12-01T13:13:21.222Z,16.63
2022-12-01T13:15:52.719Z,16.60
2022-12-01T13:18:36.126Z,16.67
2022-12-01T13:21:06.870Z,17.63
2022-12-01T13:23:44.203Z,17.97
2022-12-01T13:26:13.484Z,15.03
2022-12-01T13:28:53.258Z,16.90
2022-12-01T13:31:22.581Z,17.20
2022-12-01T13:34:04.199Z,17.83
2022-12-01T13:36:49.723Z,16.43
2022-12-01T13:39:28.216Z,17.27
2022-12-01T13:42:03.696Z,17.10
2022-12-01T13:44:46.200Z,18.00
2022-12-01T13:47:47.994Z,19.93
2022-12-01T13:50:46.185Z,18.10
2022-12-01T13:53:25.366Z,17.70
2022-12-01T13:56:06.272Z,18.70
2022-12-01T13:58:54.224Z,18.57
2022-12-01T14:01:48.900Z,18.83
2022-12-01T14:04:36.177Z,17.17
2022-12-01T14:07:24.314Z,18.83
2022-12-01T14:10:01.366Z,14.73
2022-12-01T14:12:34.912Z,19.20
2022-12-01T14:15:13.313Z,17.90
2022-12-01T14:17:49.255Z,19.50
2022-12-01T14:20:21.878Z,19.30
2022-12-01T14:23:11.376Z,19.60
2022-12-01T14:25:40.621Z,18.27
2022-12-01T14:28:23.385Z,18.87
2022-12-01T14:31:07.967Z,19.97
2022-12-01T14:33:54.283Z,20.13
2022-12-01T14:36:36.259Z,19.37
2022-12-01T14:39:19.406Z,20.30
2022-12-01T14:41:51.104Z,18.93
2022-12-01T14:44:31.412Z,18.83
2022-12-01T14:47:06.594Z,19.53
2022-12-01T14:49:49.498Z,19.17
2022-12-01T14:52:31.170Z,19.33
2022-12-01T14:55:08.397Z,19.10
2022-12-01T14:57:41.161Z,18.10
2022-12-01T15:00:22.475Z,20.63
2022-12-01T15:02:54.933Z,13.50
2022-12-01T15:05:34.320Z,19.27
2022-12-01T15:08:40.226Z,18.43
2022-12-01T15:11:12.366Z,18.90
2022-12-01T15:13:48.771Z,18.40
2022-12-01T15:16:25.451Z,18.53
2022-12-01T15:18:54.170Z,19.47
2022-12-01T15:21:32.325Z,19.30
2022-12-01T15:24:03.050Z,18.53
2022-12-01T15:27:04.227Z,18.90
2022-12-01T15:29:46.742Z,19.23
2022-12-01T15:32:25.475Z,20.07
2022-12-01T15:34:55.832Z,19.67
2022-12-01T15:37:35.490Z,20.53
2022-12-01T15:40:59.807Z,20.67
2022-12-01T15:43:12.280Z,20.43
2022-12-01T15:45:54.380Z,20.50
2022-12-01T15:48:29.594Z,20.50
2022-12-01T15:51:24.346Z,19.87
2022-12-01T15:53:59.040Z,21.30
2022-12-01T15:56:37.486Z,22.13
2022-12-01T15:59:10.838Z,22.33
2022-12-01T16:01:47.310Z,22.90
2022-12-01T16:04:19.922Z,19.70
2022-12-01T16:07:10.412Z,23.43
2022-12-01T16:09:41.968Z,19.10
2022-12-01T16:12:31.375Z,23.27
2022-12-01T16:15:15.595Z,20.23
2022-12-01T16:17:52.392Z,21.00
2022-12-01T16:20:25.972Z,20.83
2022-12-01T16:23:05.382Z,19.87
2022-12-01T16:25:42.309Z,19.90
2022-12-01T16:28:28.344Z,20.20
2022-12-01T16:30:56.770Z,19.30
2022-12-01T16:33:33.303Z,17.70
2022-12-01T16:36:02.133Z,21.30
2022-12-01T16:38:37.312Z,21.13
2022-12-01T16:41:18.437Z,18.43
2022-12-01T16:44:20.285Z,21.17
2022-12-01T16:46:43.108Z,20.70
2022-12-01T16:49:18.419Z,21.70
2022-12-01T16:51:55.774Z,18.00
2022-12-01T16:54:32.435Z,21.53
2022-12-01T16:57:02.145Z,20.30
2022-12-01T16:59:37.393Z,20.27
2022-12-01T17:02:06.052Z,22.20
2022-12-01T17:04:41.399Z,22.17
2022-12-01T17:07:16.494Z,22.57
2022-12-01T17:09:51.467Z,21.60
2022-12-01T17:12:25.307Z,20.60
2022-12-01T17:15:00.529Z,21.33
2022-12-01T17:17:30.865Z,22.47
2022-12-01T17:20:05.429Z,22.10
2022-12-01T17:22:33.676Z,21.43
2022-12-01T17:25:09.361Z,22.77
2022-12-01T17:27:39.660Z,21.10
2022-12-01T17:30:17.449Z,21.13
2022-12-01T17:32:46.587Z,21.67
2022-12-01T17:35:21.392Z,21.37
2022-12-01T17:37:49.990Z,22.30
2022-12-01T17:40:25.455Z,21.67
2022-12-01T17:42:55.291Z,21.97
2022-12-01T17:45:30.581Z,21.93
2022-12-01T17:47:58.794Z,21.13
2022-12-01T17:50:33.394Z,21.10
2022-12-01T17:53:01.723Z,21.10
2022-12-01T17:55:36.447Z,21.40
2022-12-01T17:58:06.238Z,22.57
2022-12-01T18:00:41.572Z,22.50
2022-12-01T18:03:09.860Z,21.20
2022-12-01T18:05:44.417Z,21.90
2022-12-01T18:08:20.081Z,21.93
2022-12-01T18:10:55.394Z,21.63
2022-12-01T18:13:25.043Z,23.00
2022-12-01T18:15:59.465Z,22.50
2022-12-01T18:18:27.910Z,22.63
2022-12-01T18:21:02.454Z,23.10
2022-12-01T18:23:30.792Z,22.13
2022-12-01T18:26:14.121Z,23.17
2022-12-01T18:28:45.577Z,22.47
2022-12-01T18:31:21.680Z,22.83
2022-12-01T18:33:50.187Z,24.23
2022-12-01T18:36:26.516Z,23.57
2022-12-01T18:38:55.152Z,23.77
2022-12-01T18:41:23.598Z,21.43
2022-12-01T18:43:59.453Z,24.00
2022-12-01T18:46:34.535Z,24.37
2022-12-01T18:49:04.801Z,24.40
2022-12-01T18:51:41.605Z,24.00
2022-12-01T18:54:13.921Z,24.53
2022-12-01T18:56:50.248Z,24.53
2022-12-01T18:59:21.381Z,23.97
2022-12-01T19:01:56.762Z,25.27
2022-12-01T19:04:25.266Z,24.20
2022-12-01T19:07:01.676Z,24.43
2022-12-01T19:09:30.331Z,24.07
2022-12-01T19:12:06.488Z,25.47
2022-12-01T19:14:36.885Z,24.97
2022-12-01T19:17:11.547Z,24.87
2022-12-01T19:19:40.321Z,24.80
2022-12-01T19:22:15.651Z,26.43
2022-12-01T19:24:50.803Z,24.87
2022-12-01T19:27:19.383Z,25.87
2022-12-01T19:29:56.505Z,25.83
2022-12-01T19:32:24.882Z,25.77
2022-12-01T19:34:53.377Z,26.13
2022-12-01T19:37:28.672Z,25.50
2022-12-01T19:39:56.976Z,26.50
2022-12-01T19:42:31.505Z,26.27
2022-12-01T19:45:07.528Z,26.17
2022-12-01T19:47:36.686Z,25.90
2022-12-01T19:50:12.742Z,25.30
2022-12-01T19:52:41.520Z,26.30
2022-12-01T19:55:17.573Z,25.60
2022-12-01T19:57:45.985Z,25.13
2022-12-01T20:00:23.510Z,25.03
2022-12-01T20:02:51.768Z,24.93
2022-12-01T20:05:33.568Z,25.37
2022-12-01T20:08:13.533Z,25.27
2022-12-01T20:10:54.590Z,26.03
2022-12-01T20:13:23.280Z,26.77
2022-12-01T20:15:59.656Z,27.17
2022-12-01T20:18:28.089Z,27.80
2022-12-01T20:21:10.607Z,27.57
2022-12-01T20:23:39.214Z,26.87
2022-12-01T20:26:15.617Z,25.60
2022-12-01T20:28:45.185Z,26.10
2022-12-01T20:31:24.753Z,28.07
2022-12-01T20:33:55.629Z,26.70
2022-12-01T20:36:31.496Z,25.77
2022-12-01T20:39:00.072Z,26.40
2022-12-01T20:41:34.521Z,27.47
2022-12-01T20:44:07.311Z,25.20
2022-12-01T20:46:47.606Z,26.87
2022-12-01T20:49:18.862Z,25.83
2022-12-01T20:51:54.550Z,26.67
2022-12-01T20:54:28.379Z,27.63
2022-12-01T20:57:04.737Z,25.43
2022-12-01T20:59:33.000Z,27.97
2022-12-01T21:02:09.572Z,26.57
2022-12-01T21:04:38.132Z,26.77
2022-12-01T21:07:18.624Z,28.17
2022-12-01T21:09:46.905Z,26.07
2022-12-01T21:12:41.720Z,25.97
2022-12-01T21:15:19.007Z,25.10
2022-12-01T21:18:00.621Z,23.80
2022-12-01T21:20:31.817Z,24.13
2022-12-01T21:23:13.822Z,24.33
2022-12-01T21:25:43.447Z,23.37
2022-12-01T21:28:25.794Z,23.17
2022-12-01T21:31:00.415Z,21.77
2022-12-01T21:33:43.611Z,21.67
2022-12-01T21:36:17.129Z,22.73
2022-12-01T21:38:52.618Z,21.83
2022-12-01T21:41:26.070Z,23.27
2022-12-01T21:44:03.693Z,21.77
2022-12-01T21:46:32.385Z,21.63
2022-12-01T21:49:08.656Z,22.40
2022-12-01T21:51:36.879Z,22.37
2022-12-01T21:54:14.669Z,21.87
2022-12-01T21:56:42.901Z,21.70
2022-12-01T21:59:24.784Z,21.97
2022-12-01T22:01:55.709Z,21.23
2022-12-01T22:04:36.666Z,21.93
2022-12-01T22:07:12.129Z,21.80
2022-12-01T22:09:46.771Z,20.63
2022-12-01T22:12:25.780Z,22.10
2022-12-01T22:15:03.658Z,21.80
2022-12-01T22:17:31.858Z,21.00
2022-12-01T22:20:09.743Z,21.70
2022-12-01T22:22:39.462Z,23.40
2022-12-01T22:25:29.810Z,22.43
2022-12-01T22:28:00.407Z,23.00
2022-12-01T22:30:35.638Z,22.97
2022-12-01T22:33:06.368Z,23.10
2022-12-01T22:35:46.641Z,24.20
2022-12-01T22:38:22.600Z,24.30
2022-12-01T22:41:04.662Z,24.57
2022-12-01T22:43:47.047Z,24.90
2022-12-01T22:46:43.802Z,24.40
2022-12-01T22:49:19.552Z,24.03
2022-12-01T22:51:57.627Z,24.03
2022-12-01T22:54:33.414Z,23.60
2022-12-01T22:57:20.643Z,24.40
2022-12-01T22:59:50.391Z,25.03
2022-12-01T23:02:29.697Z,25.10
2022-12-01T23:05:00.832Z,26.17
2022-12-01T23:07:53.920Z,26.23
2022-12-01T23:10:25.143Z,26.13
2022-12-01T23:13:02.754Z,26.53
2022-12-01T23:15:34.236Z,25.43
2022-12-01T23:18:18.691Z,26.00
2022-12-01T23:20:49.826Z,26.70
2022-12-01T23:23:28.900Z,26.67
2022-12-01T23:25:57.754Z,26.17
2022-12-01T23:28:32.666Z,26.33
2022-12-01T23:31:01.087Z,25.80
2022-12-01T23:33:37.706Z,26.67
2022-12-01T23:36:23.819Z,27.07
2022-12-01T23:39:02.863Z,26.90
2022-12-01T23:41:36.459Z,26.80
2022-12-01T23:44:18.935Z,26.80
2022-12-01T23:46:48.637Z,26.87
2022-12-01T23:49:27.736Z,26.90
2022-12-01T23:51:57.616Z,26.33
2022-12-01T23:54:36.889Z,27.40
2022-12-01T23:57:20.509Z,27.40
2022-12-01T23:59:55.744Z,28.37
